sensor_id;sensor_type;location;lat;lon;timestamp;pressure;altitude;pressure_sealevel;temperature;humidity
61136;BME280;47021;51.340;12.432;2022-08-01T00:01:26;99869.44;;;25.73;52.34
61136;BME280;47021;51.340;12.432;2022-08-01T00:04:03;99869.09;;;25.58;52.75
61136;BME280;47021;51.340;12.432;2022-08-01T00:06:30;99876.53;;;25.26;54.00
61136;BME280;47021;51.340;12.432;2022-08-01T00:09:01;99880.59;;;25.29;53.64
61136;BME280;47021;51.340;12.432;2022-08-01T00:11:38;99868.06;;;25.29;54.16
61136;BME280;47021;51.340;12.432;2022-08-01T00:14:04;99875.72;;;25.26;53.93
61136;BME280;47021;51.340;12.432;2022-08-01T00:19:21;99875.72;;;25.26;54.05
61136;BME280;47021;51.340;12.432;2022-08-01T00:21:49;99877.41;;;25.08;54.42
61136;BME280;47021;51.340;12.432;2022-08-01T00:24:14;99876.91;;;25.30;53.58
61136;BME280;47021;51.340;12.432;2022-08-01T00:26:45;99862.75;;;25.41;53.50
61136;BME280;47021;51.340;12.432;2022-08-01T00:29:18;99874.72;;;25.38;53.33
61136;BME280;47021;51.340;12.432;2022-08-01T00:31:46;99875.13;;;25.23;53.85
61136;BME280;47021;51.340;12.432;2022-08-01T00:34:13;99869.66;;;25.18;54.19
61136;BME280;47021;51.340;12.432;2022-08-01T00:36:38;99868.38;;;25.09;54.33
61136;BME280;47021;51.340;12.432;2022-08-01T00:39:05;99876.28;;;24.86;54.90
61136;BME280;47021;51.340;12.432;2022-08-01T00:41:32;99872.25;;;25.25;54.07
61136;BME280;47021;51.340;12.432;2022-08-01T00:43:57;99878.06;;;25.34;53.85
61136;BME280;47021;51.340;12.432;2022-08-01T00:46:22;99874.72;;;25.38;53.83
61136;BME280;47021;51.340;12.432;2022-08-01T00:48:50;99874.47;;;25.40;54.08
61136;BME280;47021;51.340;12.432;2022-08-01T00:51:17;99876.06;;;25.59;53.49
61136;BME280;47021;51.340;12.432;2022-08-01T00:53:44;99882.75;;;25.08;54.80
61136;BME280;47021;51.340;12.432;2022-08-01T00:56:10;99875.25;;;25.29;54.22
61136;BME280;47021;51.340;12.432;2022-08-01T00:58:38;99873.88;;;25.38;53.81
61136;BME280;47021;51.340;12.432;2022-08-01T01:01:04;99874.38;;;25.05;54.96
61136;BME280;47021;51.340;12.432;2022-08-01T01:03:30;99868.72;;;25.13;54.62
61136;BME280;47021;51.340;12.432;2022-08-01T01:06:44;99866.19;;;25.18;55.03
61136;BME280;47021;51.340;12.432;2022-08-01T01:08:47;99871.00;;;24.98;54.70
61136;BME280;47021;51.340;12.432;2022-08-01T01:11:29;99867.44;;;24.86;54.82
61136;BME280;47021;51.340;12.432;2022-08-01T01:14:09;99869.44;;;24.90;54.42
61136;BME280;47021;51.340;12.432;2022-08-01T01:16:38;99875.97;;;24.58;55.16
61136;BME280;47021;51.340;12.432;2022-08-01T01:19:13;99875.91;;;24.46;55.95
61136;BME280;47021;51.340;12.432;2022-08-01T01:21:54;99872.34;;;24.52;55.49
61136;BME280;47021;51.340;12.432;2022-08-01T01:27:06;99876.72;;;24.65;54.58
61136;BME280;47021;51.340;12.432;2022-08-01T01:29:41;99872.34;;;24.52;54.83
61136;BME280;47021;51.340;12.432;2022-08-01T01:32:13;99873.00;;;24.66;54.69
61136;BME280;47021;51.340;12.432;2022-08-01T01:34:40;99870.03;;;24.74;54.68
61136;BME280;47021;51.340;12.432;2022-08-01T01:37:08;99871.47;;;24.40;55.08
61136;BME280;47021;51.340;12.432;2022-08-01T01:39:34;99869.75;;;24.64;55.04
61136;BME280;47021;51.340;12.432;2022-08-01T01:42:10;99875.47;;;24.49;54.77
61136;BME280;47021;51.340;12.432;2022-08-01T01:44:41;99865.81;;;24.85;54.10
61136;BME280;47021;51.340;12.432;2022-08-01T01:47:08;99859.00;;;24.71;54.46
61136;BME280;47021;51.340;12.432;2022-08-01T01:49:34;99861.28;;;24.67;54.87
61136;BME280;47021;51.340;12.432;2022-08-01T01:52:00;99860.94;;;24.82;54.07
61136;BME280;47021;51.340;12.432;2022-08-01T01:54:39;99864.44;;;24.94;53.83
61136;BME280;47021;51.340;12.432;2022-08-01T01:57:05;99858.50;;;25.21;52.73
61136;BME280;47021;51.340;12.432;2022-08-01T01:59:32;99865.91;;;25.08;53.57
61136;BME280;47021;51.340;12.432;2022-08-01T02:01:58;99860.16;;;24.93;53.89
61136;BME280;47021;51.340;12.432;2022-08-01T02:04:24;99857.09;;;25.19;52.96
61136;BME280;47021;51.340;12.432;2022-08-01T02:06:50;99859.44;;;24.86;53.69
61136;BME280;47021;51.340;12.432;2022-08-01T02:09:16;99872.06;;;24.61;54.26
61136;BME280;47021;51.340;12.432;2022-08-01T02:11:44;99874.22;;;24.34;55.48
61136;BME280;47021;51.340;12.432;2022-08-01T02:14:10;99871.56;;;24.34;55.42
61136;BME280;47021;51.340;12.432;2022-08-01T02:16:36;99876.91;;;24.34;55.04
61136;BME280;47021;51.340;12.432;2022-08-01T02:19:10;99876.88;;;23.91;55.86
61136;BME280;47021;51.340;12.432;2022-08-01T02:24:07;99876.97;;;24.45;54.60
61136;BME280;47021;51.340;12.432;2022-08-01T02:26:34;99878.56;;;24.10;55.71
61136;BME280;47021;51.340;12.432;2022-08-01T02:29:05;99877.09;;;23.90;56.49
61136;BME280;47021;51.340;12.432;2022-08-01T02:31:34;99887.03;;;24.01;56.45
61136;BME280;47021;51.340;12.432;2022-08-01T02:34:03;99883.97;;;23.79;56.87
61136;BME280;47021;51.340;12.432;2022-08-01T02:36:33;99887.38;;;23.86;56.77
61136;BME280;47021;51.340;12.432;2022-08-01T02:39:13;99880.38;;;23.67;57.19
61136;BME280;47021;51.340;12.432;2022-08-01T02:41:41;99878.69;;;23.72;57.06
61136;BME280;47021;51.340;12.432;2022-08-01T02:44:09;99884.00;;;23.48;58.00
61136;BME280;47021;51.340;12.432;2022-08-01T02:46:39;99884.69;;;23.93;56.76
61136;BME280;47021;51.340;12.432;2022-08-01T02:49:13;99882.16;;;23.73;57.16
61136;BME280;47021;51.340;12.432;2022-08-01T02:51:39;99883.56;;;24.00;56.58
61136;BME280;47021;51.340;12.432;2022-08-01T02:54:08;99883.69;;;24.12;56.56
61136;BME280;47021;51.340;12.432;2022-08-01T02:56:39;99887.56;;;23.66;57.55
61136;BME280;47021;51.340;12.432;2022-08-01T02:59:11;99889.94;;;23.50;58.12
61136;BME280;47021;51.340;12.432;2022-08-01T03:01:37;99881.41;;;23.66;58.03
61136;BME280;47021;51.340;12.432;2022-08-01T03:04:11;99887.16;;;23.32;59.48
61136;BME280;47021;51.340;12.432;2022-08-01T03:06:46;99893.00;;;23.53;58.86
61136;BME280;47021;51.340;12.432;2022-08-01T03:09:12;99889.47;;;23.59;58.66
61136;BME280;47021;51.340;12.432;2022-08-01T03:11:39;99884.59;;;23.74;58.88
61136;BME280;47021;51.340;12.432;2022-08-01T03:14:07;99894.53;;;23.67;59.19
61136;BME280;47021;51.340;12.432;2022-08-01T03:16:44;99896.50;;;23.47;59.81
61136;BME280;47021;51.340;12.432;2022-08-01T03:19:22;99896.13;;;23.44;60.34
61136;BME280;47021;51.340;12.432;2022-08-01T03:21:50;99900.91;;;23.29;61.33
61136;BME280;47021;51.340;12.432;2022-08-01T03:24:22;99906.78;;;23.06;62.45
61136;BME280;47021;51.340;12.432;2022-08-01T03:27:00;99900.44;;;23.07;62.14
61136;BME280;47021;51.340;12.432;2022-08-01T03:29:27;99904.06;;;23.19;62.51
61136;BME280;47021;51.340;12.432;2022-08-01T03:31:54;99919.16;;;23.32;62.22
61136;BME280;47021;51.340;12.432;2022-08-01T03:34:19;99913.47;;;23.22;63.47
61136;BME280;47021;51.340;12.432;2022-08-01T03:36:46;99923.91;;;23.23;63.18
61136;BME280;47021;51.340;12.432;2022-08-01T03:39:12;99909.22;;;23.14;63.74
61136;BME280;47021;51.340;12.432;2022-08-01T03:41:40;99916.22;;;23.46;62.36
61136;BME280;47021;51.340;12.432;2022-08-01T03:44:26;99907.75;;;23.80;61.75
61136;BME280;47021;51.340;12.432;2022-08-01T03:46:55;99916.28;;;23.64;61.82
61136;BME280;47021;51.340;12.432;2022-08-01T03:49:40;99914.94;;;23.80;61.42
61136;BME280;47021;51.340;12.432;2022-08-01T03:52:07;99914.69;;;23.88;61.28
61136;BME280;47021;51.340;12.432;2022-08-01T03:54:51;99911.72;;;23.71;61.87
61136;BME280;47021;51.340;12.432;2022-08-01T03:57:27;99914.88;;;23.86;61.32
61136;BME280;47021;51.340;12.432;2022-08-01T03:59:53;99916.72;;;23.86;61.37
61136;BME280;47021;51.340;12.432;2022-08-01T04:02:20;99926.69;;;23.72;62.10
61136;BME280;47021;51.340;12.432;2022-08-01T04:04:48;99921.41;;;23.66;62.84
61136;BME280;47021;51.340;12.432;2022-08-01T04:07:28;99925.06;;;23.40;63.74
61136;BME280;47021;51.340;12.432;2022-08-01T04:09:55;99921.25;;;23.23;65.12
61136;BME280;47021;51.340;12.432;2022-08-01T04:12:33;99926.41;;;23.56;63.99
61136;BME280;47021;51.340;12.432;2022-08-01T04:14:59;99928.53;;;23.41;64.65
61136;BME280;47021;51.340;12.432;2022-08-01T04:20:01;99935.03;;;23.13;65.31
61136;BME280;47021;51.340;12.432;2022-08-01T04:22:33;99936.31;;;23.49;64.52
61136;BME280;47021;51.340;12.432;2022-08-01T04:25:00;99936.59;;;23.34;64.69
61136;BME280;47021;51.340;12.432;2022-08-01T04:27:32;99931.53;;;23.82;63.80
61136;BME280;47021;51.340;12.432;2022-08-01T04:30:00;99946.72;;;23.81;63.64
61136;BME280;47021;51.340;12.432;2022-08-01T04:32:26;99939.41;;;23.70;63.92
61136;BME280;47021;51.340;12.432;2022-08-01T04:35:02;99941.47;;;23.68;63.88
61136;BME280;47021;51.340;12.432;2022-08-01T04:37:30;99947.59;;;23.75;63.87
61136;BME280;47021;51.340;12.432;2022-08-01T04:39:56;99950.91;;;23.71;63.72
61136;BME280;47021;51.340;12.432;2022-08-01T04:42:22;99947.94;;;23.54;64.29
61136;BME280;47021;51.340;12.432;2022-08-01T04:44:48;99950.03;;;23.46;64.37
61136;BME280;47021;51.340;12.432;2022-08-01T04:47:14;99949.91;;;23.34;64.77
61136;BME280;47021;51.340;12.432;2022-08-01T04:49:40;99952.19;;;23.24;65.03
61136;BME280;47021;51.340;12.432;2022-08-01T04:52:05;99955.19;;;23.41;64.73
61136;BME280;47021;51.340;12.432;2022-08-01T04:54:30;99964.00;;;23.72;64.40
61136;BME280;47021;51.340;12.432;2022-08-01T04:56:56;99951.66;;;23.78;63.51
61136;BME280;47021;51.340;12.432;2022-08-01T04:59:27;99957.91;;;23.34;65.01
61136;BME280;47021;51.340;12.432;2022-08-01T05:01:53;99957.50;;;23.24;65.04
61136;BME280;47021;51.340;12.432;2022-08-01T05:04:24;99964.06;;;22.84;66.39
61136;BME280;47021;51.340;12.432;2022-08-01T05:06:49;99962.41;;;22.89;66.30
61136;BME280;47021;51.340;12.432;2022-08-01T05:09:14;99958.94;;;23.27;65.30
61136;BME280;47021;51.340;12.432;2022-08-01T05:11:47;99957.50;;;23.37;65.06
61136;BME280;47021;51.340;12.432;2022-08-01T05:14:20;99957.72;;;23.23;65.33
61136;BME280;47021;51.340;12.432;2022-08-01T05:16:46;99959.50;;;23.73;64.00
61136;BME280;47021;51.340;12.432;2022-08-01T05:19:13;99951.88;;;24.08;62.66
61136;BME280;47021;51.340;12.432;2022-08-01T05:21:41;99953.06;;;24.12;62.92
61136;BME280;47021;51.340;12.432;2022-08-01T05:24:06;99953.66;;;24.14;62.72
61136;BME280;47021;51.340;12.432;2022-08-01T05:26:37;99952.31;;;24.47;61.96
61136;BME280;47021;51.340;12.432;2022-08-01T05:29:02;99953.03;;;24.79;61.06
61136;BME280;47021;51.340;12.432;2022-08-01T05:31:27;99944.22;;;25.08;60.52
61136;BME280;47021;51.340;12.432;2022-08-01T05:33:53;99959.09;;;24.86;61.15
61136;BME280;47021;51.340;12.432;2022-08-01T05:36:18;99958.34;;;24.61;61.80
61136;BME280;47021;51.340;12.432;2022-08-01T05:38:43;99960.16;;;24.42;62.68
61136;BME280;47021;51.340;12.432;2022-08-01T05:41:14;99965.94;;;24.39;63.26
61136;BME280;47021;51.340;12.432;2022-08-01T05:43:40;99968.03;;;24.55;62.56
61136;BME280;47021;51.340;12.432;2022-08-01T05:46:06;99959.59;;;24.59;62.99
61136;BME280;47021;51.340;12.432;2022-08-01T05:48:32;99954.59;;;24.62;62.70
61136;BME280;47021;51.340;12.432;2022-08-01T05:50:57;99955.00;;;25.02;61.80
61136;BME280;47021;51.340;12.432;2022-08-01T05:53:22;99952.19;;;25.27;60.84
61136;BME280;47021;51.340;12.432;2022-08-01T05:55:49;99945.59;;;25.29;60.73
61136;BME280;47021;51.340;12.432;2022-08-01T05:58:15;99947.72;;;25.39;60.43
61136;BME280;47021;51.340;12.432;2022-08-01T06:00:41;99954.75;;;25.03;61.70
61136;BME280;47021;51.340;12.432;2022-08-01T06:03:12;99955.88;;;25.14;61.22
61136;BME280;47021;51.340;12.432;2022-08-01T06:05:37;99959.59;;;24.95;61.73
61136;BME280;47021;51.340;12.432;2022-08-01T06:08:03;99959.59;;;25.13;60.94
61136;BME280;47021;51.340;12.432;2022-08-01T06:10:34;99956.69;;;24.96;61.47
61136;BME280;47021;51.340;12.432;2022-08-01T06:12:59;99957.03;;;24.88;61.90
61136;BME280;47021;51.340;12.432;2022-08-01T06:15:24;99955.94;;;25.07;61.58
61136;BME280;47021;51.340;12.432;2022-08-01T06:17:55;99959.13;;;25.16;61.08
61136;BME280;47021;51.340;12.432;2022-08-01T06:20:27;99956.06;;;25.60;60.52
61136;BME280;47021;51.340;12.432;2022-08-01T06:22:52;99969.97;;;25.03;61.51
61136;BME280;47021;51.340;12.432;2022-08-01T06:25:20;99960.91;;;25.22;61.48
61136;BME280;47021;51.340;12.432;2022-08-01T06:27:46;99953.34;;;25.78;59.81
61136;BME280;47021;51.340;12.432;2022-08-01T06:30:12;99956.44;;;25.64;60.03
61136;BME280;47021;51.340;12.432;2022-08-01T06:32:45;99962.69;;;25.40;60.95
61136;BME280;47021;51.340;12.432;2022-08-01T06:35:10;99969.19;;;24.84;62.67
61136;BME280;47021;51.340;12.432;2022-08-01T06:37:44;99971.38;;;24.69;62.67
61136;BME280;47021;51.340;12.432;2022-08-01T06:40:11;99981.72;;;24.41;64.00
61136;BME280;47021;51.340;12.432;2022-08-01T06:42:37;99977.19;;;25.02;62.24
61136;BME280;47021;51.340;12.432;2022-08-01T06:45:09;99969.69;;;24.75;62.74
61136;BME280;47021;51.340;12.432;2022-08-01T06:47:39;99974.31;;;24.86;62.47
61136;BME280;47021;51.340;12.432;2022-08-01T06:50:14;99974.00;;;24.76;63.19
61136;BME280;47021;51.340;12.432;2022-08-01T06:52:39;99984.69;;;24.76;63.25
61136;BME280;47021;51.340;12.432;2022-08-01T06:55:05;99985.50;;;24.94;62.50
61136;BME280;47021;51.340;12.432;2022-08-01T06:58:06;99993.69;;;24.38;64.33
61136;BME280;47021;51.340;12.432;2022-08-01T07:00:25;99992.38;;;24.47;63.78
61136;BME280;47021;51.340;12.432;2022-08-01T07:02:52;99984.81;;;24.63;63.63
61136;BME280;47021;51.340;12.432;2022-08-01T07:05:18;99985.69;;;24.57;64.23
61136;BME280;47021;51.340;12.432;2022-08-01T07:07:44;99991.56;;;24.65;63.40
61136;BME280;47021;51.340;12.432;2022-08-01T07:10:09;99993.81;;;24.68;63.68
61136;BME280;47021;51.340;12.432;2022-08-01T07:12:35;99990.56;;;25.02;62.50
61136;BME280;47021;51.340;12.432;2022-08-01T07:15:07;100002.75;;;24.55;64.04
61136;BME280;47021;51.340;12.432;2022-08-01T07:17:37;100000.84;;;24.63;63.86
61136;BME280;47021;51.340;12.432;2022-08-01T07:20:04;100002.16;;;24.53;64.49
61136;BME280;47021;51.340;12.432;2022-08-01T07:22:32;99990.09;;;24.87;63.30
61136;BME280;47021;51.340;12.432;2022-08-01T07:24:57;99998.91;;;24.51;64.69
61136;BME280;47021;51.340;12.432;2022-08-01T07:27:22;99990.94;;;24.88;63.21
61136;BME280;47021;51.340;12.432;2022-08-01T07:29:47;99983.84;;;25.30;62.33
61136;BME280;47021;51.340;12.432;2022-08-01T07:32:12;99978.41;;;25.66;60.38
61136;BME280;47021;51.340;12.432;2022-08-01T07:34:40;99985.19;;;26.44;57.84
61136;BME280;47021;51.340;12.432;2022-08-01T07:37:07;99984.56;;;26.08;58.41
61136;BME280;47021;51.340;12.432;2022-08-01T07:39:35;99983.84;;;26.01;58.46
61136;BME280;47021;51.340;12.432;2022-08-01T07:44:30;99986.09;;;25.62;59.24
61136;BME280;47021;51.340;12.432;2022-08-01T07:46:55;99990.56;;;25.80;58.68
61136;BME280;47021;51.340;12.432;2022-08-01T07:49:21;100002.81;;;25.40;58.76
61136;BME280;47021;51.340;12.432;2022-08-01T07:51:46;100006.13;;;25.05;60.86
61136;BME280;47021;51.340;12.432;2022-08-01T07:54:19;100029.25;;;23.70;66.75
61136;BME280;47021;51.340;12.432;2022-08-01T07:57:05;100025.47;;;22.95;71.61
61136;BME280;47021;51.340;12.432;2022-08-01T07:59:44;100023.22;;;22.92;72.55
61136;BME280;47021;51.340;12.432;2022-08-01T08:02:10;100031.66;;;22.57;72.46
61136;BME280;47021;51.340;12.432;2022-08-01T08:04:42;100038.66;;;22.31;74.89
61136;BME280;47021;51.340;12.432;2022-08-01T08:07:09;100038.44;;;22.53;73.24
61136;BME280;47021;51.340;12.432;2022-08-01T08:09:36;100026.16;;;22.38;74.27
61136;BME280;47021;51.340;12.432;2022-08-01T08:12:02;100017.19;;;23.23;71.45
61136;BME280;47021;51.340;12.432;2022-08-01T08:14:27;100025.25;;;23.54;71.41
61136;BME280;47021;51.340;12.432;2022-08-01T08:16:54;100026.19;;;23.22;72.55
61136;BME280;47021;51.340;12.432;2022-08-01T08:19:25;100028.19;;;23.46;71.38
61136;BME280;47021;51.340;12.432;2022-08-01T08:21:57;100027.19;;;24.10;70.59
61136;BME280;47021;51.340;12.432;2022-08-01T08:24:30;100014.16;;;25.05;66.69
61136;BME280;47021;51.340;12.432;2022-08-01T08:26:58;100019.44;;;24.51;67.39
61136;BME280;47021;51.340;12.432;2022-08-01T08:29:31;100012.38;;;24.81;67.49
61136;BME280;47021;51.340;12.432;2022-08-01T08:31:56;100018.03;;;25.09;66.55
61136;BME280;47021;51.340;12.432;2022-08-01T08:34:34;100011.28;;;24.89;66.07
61136;BME280;47021;51.340;12.432;2022-08-01T08:37:00;100006.97;;;25.54;65.54
61136;BME280;47021;51.340;12.432;2022-08-01T08:39:31;100017.75;;;25.47;64.86
61136;BME280;47021;51.340;12.432;2022-08-01T08:42:07;100017.72;;;25.17;65.20
61136;BME280;47021;51.340;12.432;2022-08-01T08:44:40;100011.78;;;25.63;63.01
61136;BME280;47021;51.340;12.432;2022-08-01T08:47:12;100031.00;;;24.88;65.99
61136;BME280;47021;51.340;12.432;2022-08-01T08:49:42;100035.13;;;24.66;65.79
61136;BME280;47021;51.340;12.432;2022-08-01T08:52:07;100036.72;;;25.28;63.41
61136;BME280;47021;51.340;12.432;2022-08-01T08:54:33;100034.56;;;25.18;63.53
61136;BME280;47021;51.340;12.432;2022-08-01T08:57:02;100036.44;;;24.99;62.04
61136;BME280;47021;51.340;12.432;2022-08-01T08:59:34;100034.06;;;25.09;62.56
61136;BME280;47021;51.340;12.432;2022-08-01T09:02:07;100028.69;;;25.28;62.44
61136;BME280;47021;51.340;12.432;2022-08-01T09:04:32;100029.25;;;25.66;60.64
61136;BME280;47021;51.340;12.432;2022-08-01T09:06:57;100024.56;;;26.03;58.26
61136;BME280;47021;51.340;12.432;2022-08-01T09:09:25;100042.56;;;25.84;60.58
61136;BME280;47021;51.340;12.432;2022-08-01T09:12:02;100036.09;;;25.62;60.95
61136;BME280;47021;51.340;12.432;2022-08-01T09:14:27;100033.94;;;26.12;57.97
61136;BME280;47021;51.340;12.432;2022-08-01T09:17:10;100035.25;;;26.32;58.58
61136;BME280;47021;51.340;12.432;2022-08-01T09:19:41;100042.16;;;25.99;58.63
61136;BME280;47021;51.340;12.432;2022-08-01T09:22:11;100040.84;;;25.89;58.36
61136;BME280;47021;51.340;12.432;2022-08-01T09:24:39;100039.25;;;25.70;58.62
61136;BME280;47021;51.340;12.432;2022-08-01T09:27:20;100054.09;;;25.55;58.17
61136;BME280;47021;51.340;12.432;2022-08-01T09:32:30;100052.44;;;26.13;56.67
61136;BME280;47021;51.340;12.432;2022-08-01T09:34:55;100042.47;;;26.67;55.06
61136;BME280;47021;51.340;12.432;2022-08-01T09:37:30;100064.75;;;26.79;54.81
61136;BME280;47021;51.340;12.432;2022-08-01T09:39:56;100054.81;;;27.02;54.25
61136;BME280;47021;51.340;12.432;2022-08-01T09:47:55;100063.09;;;26.89;53.93
61136;BME280;47021;51.340;12.432;2022-08-01T09:53:06;100066.84;;;24.98;58.04
61136;BME280;47021;51.340;12.432;2022-08-01T09:55:32;100079.63;;;25.33;56.88
61136;BME280;47021;51.340;12.432;2022-08-01T09:58:00;100071.09;;;26.02;55.54
61136;BME280;47021;51.340;12.432;2022-08-01T10:00:32;100076.00;;;26.34;55.04
61136;BME280;47021;51.340;12.432;2022-08-01T10:02:58;100068.94;;;26.63;53.50
61136;BME280;47021;51.340;12.432;2022-08-01T10:05:37;100067.75;;;27.05;51.93
61136;BME280;47021;51.340;12.432;2022-08-01T10:08:04;100069.41;;;27.06;52.43
61136;BME280;47021;51.340;12.432;2022-08-01T10:10:31;100075.00;;;26.58;54.82
61136;BME280;47021;51.340;12.432;2022-08-01T10:15:43;100087.78;;;25.56;57.53
61136;BME280;47021;51.340;12.432;2022-08-01T10:18:08;100073.75;;;26.20;54.91
61136;BME280;47021;51.340;12.432;2022-08-01T10:20:35;100072.78;;;25.73;55.47
61136;BME280;47021;51.340;12.432;2022-08-01T10:23:02;100069.63;;;26.70;53.50
61136;BME280;47021;51.340;12.432;2022-08-01T10:25:28;100071.16;;;25.83;55.04
61136;BME280;47021;51.340;12.432;2022-08-01T10:27:54;100066.34;;;26.56;53.36
61136;BME280;47021;51.340;12.432;2022-08-01T10:30:19;100073.69;;;27.07;51.95
61136;BME280;47021;51.340;12.432;2022-08-01T10:32:46;100057.09;;;27.45;50.65
61136;BME280;47021;51.340;12.432;2022-08-01T10:35:13;100056.28;;;27.73;50.21
61136;BME280;47021;51.340;12.432;2022-08-01T10:37:38;100058.31;;;26.68;51.44
61136;BME280;47021;51.340;12.432;2022-08-01T10:40:11;100060.28;;;26.26;52.56
61136;BME280;47021;51.340;12.432;2022-08-01T10:42:38;100058.44;;;27.08;50.34
61136;BME280;47021;51.340;12.432;2022-08-01T10:45:04;100062.03;;;27.13;50.41
61136;BME280;47021;51.340;12.432;2022-08-01T10:48:03;100061.88;;;27.71;49.05
61136;BME280;47021;51.340;12.432;2022-08-01T10:50:24;100058.13;;;27.33;48.69
61136;BME280;47021;51.340;12.432;2022-08-01T10:55:50;100050.06;;;27.44;48.49
61136;BME280;47021;51.340;12.432;2022-08-01T11:03:44;100040.03;;;27.79;48.19
61136;BME280;47021;51.340;12.432;2022-08-01T11:08:52;100042.84;;;26.70;49.88
61136;BME280;47021;51.340;12.432;2022-08-01T11:11:23;100037.34;;;27.51;48.19
61136;BME280;47021;51.340;12.432;2022-08-01T11:16:28;100049.03;;;27.34;48.35
61136;BME280;47021;51.340;12.432;2022-08-01T11:18:54;100047.72;;;26.96;49.67
61136;BME280;47021;51.340;12.432;2022-08-01T11:21:20;100052.16;;;26.68;49.70
61136;BME280;47021;51.340;12.432;2022-08-01T11:23:50;100047.88;;;27.69;47.84
61136;BME280;47021;51.340;12.432;2022-08-01T11:26:15;100035.03;;;28.00;46.62
61136;BME280;47021;51.340;12.432;2022-08-01T11:28:42;100043.44;;;28.03;46.03
61136;BME280;47021;51.340;12.432;2022-08-01T11:33:53;100048.53;;;28.05;45.16
61136;BME280;47021;51.340;12.432;2022-08-01T11:36:20;100043.44;;;28.03;45.84
61136;BME280;47021;51.340;12.432;2022-08-01T11:38:47;100051.41;;;28.31;45.79
61136;BME280;47021;51.340;12.432;2022-08-01T11:41:27;100053.78;;;28.61;45.74
61136;BME280;47021;51.340;12.432;2022-08-01T11:52:09;100070.22;;;29.03;44.62
61136;BME280;47021;51.340;12.432;2022-08-01T11:57:20;100063.44;;;27.84;47.30
61136;BME280;47021;51.340;12.432;2022-08-01T11:59:53;100061.63;;;28.01;48.42
61136;BME280;47021;51.340;12.432;2022-08-01T12:02:22;100077.97;;;27.71;49.44
61136;BME280;47021;51.340;12.432;2022-08-01T12:04:54;100071.34;;;27.90;49.83
61136;BME280;47021;51.340;12.432;2022-08-01T12:07:19;100070.94;;;28.27;48.96
61136;BME280;47021;51.340;12.432;2022-08-01T12:12:29;100080.25;;;27.00;50.92
61136;BME280;47021;51.340;12.432;2022-08-01T12:14:55;100080.16;;;27.35;50.09
61136;BME280;47021;51.340;12.432;2022-08-01T12:17:29;100068.16;;;27.25;50.55
61136;BME280;47021;51.340;12.432;2022-08-01T12:19:55;100081.28;;;27.90;48.90
61136;BME280;47021;51.340;12.432;2022-08-01T12:22:21;100072.81;;;27.81;48.94
61136;BME280;47021;51.340;12.432;2022-08-01T12:24:49;100071.16;;;28.92;47.11
61136;BME280;47021;51.340;12.432;2022-08-01T12:27:28;100072.34;;;29.17;45.57
61136;BME280;47021;51.340;12.432;2022-08-01T12:30:00;100073.16;;;28.46;47.85
61136;BME280;47021;51.340;12.432;2022-08-01T12:32:44;100082.28;;;28.79;46.64
61136;BME280;47021;51.340;12.432;2022-08-01T12:35:14;100068.97;;;28.89;45.90
61136;BME280;47021;51.340;12.432;2022-08-01T12:37:40;100074.44;;;28.60;46.02
61136;BME280;47021;51.340;12.432;2022-08-01T12:40:11;100069.97;;;27.88;47.92
61136;BME280;47021;51.340;12.432;2022-08-01T12:45:36;100075.72;;;28.08;47.28
61136;BME280;47021;51.340;12.432;2022-08-01T12:48:01;100073.50;;;28.67;46.38
61136;BME280;47021;51.340;12.432;2022-08-01T12:50:30;100061.69;;;29.97;43.60
61136;BME280;47021;51.340;12.432;2022-08-01T12:53:04;100063.19;;;29.83;43.32
61136;BME280;47021;51.340;12.432;2022-08-01T12:55:45;100070.19;;;29.63;43.80
61136;BME280;47021;51.340;12.432;2022-08-01T12:58:12;100090.56;;;29.54;43.93
61136;BME280;47021;51.340;12.432;2022-08-01T13:00:46;100078.06;;;29.48;44.17
61136;BME280;47021;51.340;12.432;2022-08-01T13:03:16;100077.75;;;29.01;45.29
61136;BME280;47021;51.340;12.432;2022-08-01T13:05:45;100076.00;;;28.23;47.01
61136;BME280;47021;51.340;12.432;2022-08-01T13:08:14;100078.44;;;28.75;45.59
61136;BME280;47021;51.340;12.432;2022-08-01T13:10:39;100074.19;;;28.29;46.74
61136;BME280;47021;51.340;12.432;2022-08-01T13:13:06;100081.63;;;29.26;45.46
61136;BME280;47021;51.340;12.432;2022-08-01T13:15:34;100083.84;;;29.34;45.62
61136;BME280;47021;51.340;12.432;2022-08-01T13:18:25;100082.50;;;28.60;46.38
61136;BME280;47021;51.340;12.432;2022-08-01T13:20:48;100087.13;;;28.15;47.99
61136;BME280;47021;51.340;12.432;2022-08-01T13:23:32;100081.63;;;29.26;45.90
61136;BME280;47021;51.340;12.432;2022-08-01T13:28:41;100090.66;;;28.49;47.12
61136;BME280;47021;51.340;12.432;2022-08-01T13:31:13;100089.53;;;29.00;45.48
61136;BME280;47021;51.340;12.432;2022-08-01T13:33:45;100082.03;;;29.02;45.64
61136;BME280;47021;51.340;12.432;2022-08-01T13:36:25;100091.06;;;29.29;44.82
61136;BME280;47021;51.340;12.432;2022-08-01T13:38:50;100097.03;;;28.76;46.06
61136;BME280;47021;51.340;12.432;2022-08-01T13:41:15;100082.19;;;28.74;45.82
61136;BME280;47021;51.340;12.432;2022-08-01T13:43:41;100085.31;;;28.04;46.44
61136;BME280;47021;51.340;12.432;2022-08-01T13:46:07;100079.59;;;29.00;44.76
61136;BME280;47021;51.340;12.432;2022-08-01T13:48:34;100079.59;;;28.62;45.60
61136;BME280;47021;51.340;12.432;2022-08-01T13:51:00;100079.69;;;29.22;44.08
61136;BME280;47021;51.340;12.432;2022-08-01T13:53:26;100083.72;;;28.86;44.59
61136;BME280;47021;51.340;12.432;2022-08-01T13:55:51;100088.13;;;28.76;44.55
61136;BME280;47021;51.340;12.432;2022-08-01T13:58:18;100092.03;;;28.35;45.19